createdAt,value
2018-12-27T00:00:36.150Z,20.30
2018-12-27T00:01:36.182Z,20.30
2018-12-27T00:02:36.140Z,21.10
2018-12-27T00:03:36.119Z,21.40
2018-12-27T00:04:36.110Z,22.60
2018-12-27T00:05:36.098Z,22.40
2018-12-27T00:06:36.141Z,20.80
2018-12-27T00:07:36.079Z,20.40
2018-12-27T00:08:36.069Z,20.20
2018-12-27T00:09:36.056Z,19.90
2018-12-27T00:10:36.043Z,20.90
2018-12-27T00:11:36.073Z,20.90
2018-12-27T00:12:36.064Z,21.40
2018-12-27T00:13:36.017Z,21.90
2018-12-27T00:14:36.041Z,19.90
2018-12-27T00:15:35.989Z,21.40
2018-12-27T00:16:35.982Z,19.90
2018-12-27T00:17:35.968Z,20.20
2018-12-27T00:18:35.958Z,20.40
2018-12-27T00:19:35.987Z,20.30
2018-12-27T00:20:35.935Z,22.10
2018-12-27T00:21:35.925Z,20.70
2018-12-27T00:22:35.912Z,20.40
2018-12-27T00:23:35.905Z,20.80
2018-12-27T00:24:35.892Z,20.60
2018-12-27T00:25:35.923Z,19.80
2018-12-27T00:26:35.871Z,20.40
2018-12-27T00:27:35.860Z,21.40
2018-12-27T00:28:35.846Z,22.00
2018-12-27T00:29:35.851Z,20.20
2018-12-27T00:30:35.831Z,20.20
2018-12-27T00:31:35.860Z,20.00
2018-12-27T00:32:35.803Z,19.80
2018-12-27T00:33:35.836Z,19.40
2018-12-27T00:34:35.782Z,19.30
2018-12-27T00:35:35.771Z,20.90
2018-12-27T00:36:35.758Z,19.90
2018-12-27T00:37:35.756Z,21.70
2018-12-27T00:38:35.736Z,19.90
2018-12-27T00:39:35.768Z,19.40
2018-12-27T00:40:35.724Z,19.90
2018-12-27T00:41:35.704Z,19.50
2018-12-27T00:42:35.696Z,19.60
2018-12-27T00:43:35.683Z,18.50
2018-12-27T00:44:35.712Z,19.30
2018-12-27T00:45:35.663Z,19.00
2018-12-27T00:46:35.652Z,18.40
2018-12-27T00:47:35.644Z,18.90
2018-12-27T00:48:35.632Z,17.70
2018-12-27T00:49:35.620Z,18.00
2018-12-27T00:50:35.650Z,18.00
2018-12-27T00:51:35.639Z,17.60
2018-12-27T00:52:35.584Z,18.50
2018-12-27T00:53:35.575Z,17.50
2018-12-27T00:54:35.565Z,16.60
2018-12-27T00:55:35.554Z,18.10
2018-12-27T00:56:35.548Z,17.40
2018-12-27T00:57:35.582Z,17.70
2018-12-27T00:58:35.522Z,18.00
2018-12-27T00:59:35.514Z,17.50
2018-12-27T01:00:35.503Z,16.80
2018-12-27T01:01:35.491Z,17.80
2018-12-27T01:02:35.477Z,17.90
2018-12-27T01:03:35.510Z,16.80
2018-12-27T01:04:35.456Z,17.00
2018-12-27T01:05:35.444Z,16.70
2018-12-27T01:06:35.435Z,16.90
2018-12-27T01:07:35.422Z,17.60
2018-12-27T01:08:35.456Z,15.60
2018-12-27T01:09:35.400Z,17.40
2018-12-27T01:10:35.395Z,17.90
2018-12-27T01:11:35.420Z,16.50
2018-12-27T01:12:35.386Z,16.40
2018-12-27T01:13:35.401Z,16.10
2018-12-27T01:14:35.387Z,17.10
2018-12-27T01:15:35.335Z,17.70
2018-12-27T01:16:35.337Z,16.80
2018-12-27T01:17:35.311Z,16.20
2018-12-27T01:18:35.303Z,18.00
2018-12-27T01:19:35.295Z,17.40
2018-12-27T01:20:35.345Z,18.00
2018-12-27T01:21:35.316Z,18.30
2018-12-27T01:22:35.262Z,18.10
2018-12-27T01:23:35.250Z,16.70
2018-12-27T01:24:35.236Z,16.40
2018-12-27T01:25:35.251Z,16.90
2018-12-27T01:26:35.218Z,17.10
2018-12-27T01:27:35.249Z,16.80
2018-12-27T01:28:35.195Z,16.60
2018-12-27T01:29:35.238Z,16.30
2018-12-27T01:30:35.171Z,16.80
2018-12-27T01:31:35.162Z,15.30
2018-12-27T01:32:35.150Z,16.00
2018-12-27T01:33:35.141Z,17.80
2018-12-27T01:34:35.129Z,16.80
2018-12-27T01:35:35.166Z,17.00
2018-12-27T01:36:35.106Z,17.50
2018-12-27T01:37:35.096Z,15.30
2018-12-27T01:38:35.088Z,16.20
2018-12-27T01:39:35.077Z,16.00
2018-12-27T01:40:35.063Z,16.50
2018-12-27T01:41:35.099Z,17.80
2018-12-27T01:42:35.042Z,17.50
2018-12-27T01:43:35.030Z,16.80
2018-12-27T01:44:35.020Z,17.20
2018-12-27T01:45:35.049Z,16.10
2018-12-27T01:46:35.061Z,16.80
2018-12-27T01:47:34.987Z,17.90
2018-12-27T01:48:34.990Z,16.90
2018-12-27T01:49:34.971Z,17.00
2018-12-27T01:50:34.960Z,17.70
2018-12-27T01:51:34.942Z,17.30
2018-12-27T01:52:34.981Z,17.30
2018-12-27T01:53:34.969Z,18.90
2018-12-27T01:54:34.913Z,17.00
2018-12-27T01:55:34.940Z,18.60
2018-12-27T01:56:34.936Z,19.00
2018-12-27T01:57:34.879Z,17.70
2018-12-27T01:58:34.867Z,20.40
2018-12-27T01:59:34.858Z,20.00
2018-12-27T02:00:34.846Z,17.60
2018-12-27T02:01:34.834Z,18.20
2018-12-27T02:02:34.869Z,18.70
2018-12-27T02:03:34.814Z,19.10
2018-12-27T02:04:34.801Z,19.80
2018-12-27T02:05:34.802Z,20.20
2018-12-27T02:06:34.785Z,17.40
2018-12-27T02:07:34.813Z,18.70
2018-12-27T02:08:34.764Z,19.10
2018-12-27T02:09:34.745Z,18.10
2018-12-27T02:10:34.777Z,17.80
2018-12-27T02:11:34.724Z,16.90
2018-12-27T02:12:34.716Z,17.10
2018-12-27T02:13:34.742Z,17.90
2018-12-27T02:14:34.694Z,16.90
2018-12-27T02:15:34.685Z,17.70
2018-12-27T02:16:34.670Z,16.80
2018-12-27T02:17:34.666Z,16.70
2018-12-27T02:18:34.689Z,18.30
2018-12-27T02:19:34.644Z,17.20
2018-12-27T02:20:34.628Z,17.80
2018-12-27T02:21:34.754Z,16.20
2018-12-27T02:22:34.605Z,15.40
2018-12-27T02:23:34.595Z,16.50
2018-12-27T02:24:34.588Z,17.00
2018-12-27T02:25:34.577Z,16.10
2018-12-27T02:26:34.561Z,15.90
2018-12-27T02:27:34.594Z,15.50
2018-12-27T02:28:34.540Z,15.60
2018-12-27T02:29:34.529Z,15.40
2018-12-27T02:30:34.518Z,15.70
2018-12-27T02:31:34.546Z,15.90
2018-12-27T02:32:34.497Z,15.70
2018-12-27T02:33:35.529Z,16.70
2018-12-27T02:34:34.474Z,16.30
2018-12-27T02:35:34.485Z,16.00
2018-12-27T02:36:34.510Z,17.30
2018-12-27T02:37:34.448Z,16.50
2018-12-27T02:38:34.435Z,16.10
2018-12-27T02:39:34.421Z,15.90
2018-12-27T02:40:34.432Z,16.20
2018-12-27T02:41:34.401Z,16.10
2018-12-27T02:42:34.433Z,15.60
2018-12-27T02:43:34.379Z,16.10
2018-12-27T02:44:34.367Z,17.80
2018-12-27T02:45:34.374Z,16.20
2018-12-27T02:46:34.349Z,16.40
2018-12-27T02:47:34.336Z,16.40
2018-12-27T02:48:34.362Z,17.50
2018-12-27T02:49:34.335Z,17.00
2018-12-27T02:50:34.308Z,15.80
2018-12-27T02:51:34.298Z,18.20
2018-12-27T02:52:34.279Z,16.50
2018-12-27T02:53:34.271Z,16.70
2018-12-27T02:54:34.300Z,17.60
2018-12-27T02:55:34.252Z,16.40
2018-12-27T02:56:34.238Z,16.40
2018-12-27T02:57:34.229Z,17.20
2018-12-27T02:58:34.262Z,16.20
2018-12-27T02:59:34.213Z,16.70
2018-12-27T03:00:34.197Z,16.40
2018-12-27T03:01:34.188Z,17.40
2018-12-27T03:02:34.173Z,16.70
2018-12-27T03:03:34.162Z,16.90
2018-12-27T03:04:34.187Z,16.90
2018-12-27T03:05:34.183Z,16.00
2018-12-27T03:06:34.136Z,16.80
2018-12-27T03:07:34.122Z,17.20
2018-12-27T03:08:34.106Z,17.30
2018-12-27T03:09:34.097Z,16.10
2018-12-27T03:10:34.085Z,16.00
2018-12-27T03:11:34.113Z,16.50
2018-12-27T03:12:34.068Z,17.00
2018-12-27T03:13:34.060Z,16.40
2018-12-27T03:14:34.042Z,15.80
2018-12-27T03:15:34.034Z,15.80
2018-12-27T03:16:34.018Z,15.70
2018-12-27T03:17:34.052Z,15.50
2018-12-27T03:18:34.000Z,16.50
2018-12-27T03:19:34.028Z,15.70
2018-12-27T03:20:33.988Z,15.60
2018-12-27T03:21:33.970Z,15.00
2018-12-27T03:22:33.959Z,14.10
2018-12-27T03:23:33.942Z,14.70
2018-12-27T03:24:33.933Z,14.00
2018-12-27T03:25:33.992Z,14.70
2018-12-27T03:26:33.914Z,13.60
2018-12-27T03:27:33.902Z,14.30
2018-12-27T03:28:33.892Z,14.70
2018-12-27T03:29:33.876Z,14.40
2018-12-27T03:30:33.872Z,13.50
2018-12-27T03:31:33.902Z,13.90
2018-12-27T03:32:33.847Z,15.40
2018-12-27T03:33:33.841Z,14.30
2018-12-27T03:34:33.871Z,14.20
2018-12-27T03:35:33.820Z,14.80
2018-12-27T03:36:33.804Z,15.10
2018-12-27T03:37:33.790Z,15.60
2018-12-27T03:38:33.780Z,15.10
2018-12-27T03:39:33.784Z,14.90
2018-12-27T03:40:33.799Z,15.50
2018-12-27T03:41:33.751Z,15.50
2018-12-27T03:42:33.753Z,15.40
2018-12-27T03:43:33.729Z,15.40
2018-12-27T03:44:33.713Z,14.60
2018-12-27T03:45:33.709Z,15.60
2018-12-27T03:46:33.734Z,16.40
2018-12-27T03:47:33.681Z,17.00
2018-12-27T03:48:33.670Z,15.90
2018-12-27T03:49:33.667Z,16.60
2018-12-27T03:50:33.652Z,16.30
2018-12-27T03:51:33.640Z,16.30
2018-12-27T03:52:33.670Z,16.50
2018-12-27T03:53:33.618Z,20.20
2018-12-27T03:54:33.608Z,15.90
2018-12-27T03:55:33.598Z,15.70
2018-12-27T03:56:33.584Z,16.40
2018-12-27T03:57:33.574Z,16.80
2018-12-27T03:58:33.611Z,15.90
2018-12-27T03:59:33.553Z,15.50
2018-12-27T04:00:33.549Z,15.90
2018-12-27T04:01:33.528Z,16.00
2018-12-27T04:02:33.517Z,15.80
2018-12-27T04:03:33.554Z,16.50
2018-12-27T04:04:33.496Z,18.30
2018-12-27T04:05:33.506Z,15.70
2018-12-27T04:06:33.476Z,16.20
2018-12-27T04:07:33.472Z,15.30
2018-12-27T04:08:33.461Z,17.00
2018-12-27T04:09:33.492Z,15.70
2018-12-27T04:10:33.493Z,17.20
2018-12-27T04:11:33.423Z,16.90
2018-12-27T04:12:33.413Z,16.30
2018-12-27T04:13:33.404Z,16.40
2018-12-27T04:14:33.392Z,16.10
2018-12-27T04:15:33.377Z,15.50
2018-12-27T04:16:33.409Z,16.20
2018-12-27T04:17:33.367Z,15.60
2018-12-27T04:18:33.357Z,16.70
2018-12-27T04:19:33.338Z,15.70
2018-12-27T04:20:33.327Z,16.70
2018-12-27T04:21:33.314Z,15.70
2018-12-27T04:22:33.348Z,17.60
2018-12-27T04:23:33.312Z,16.40
2018-12-27T04:24:33.284Z,16.70
2018-12-27T04:25:33.273Z,15.80
2018-12-27T04:26:33.274Z,17.30
2018-12-27T04:27:33.250Z,16.70
2018-12-27T04:28:33.289Z,15.80
2018-12-27T04:29:33.225Z,16.90
2018-12-27T04:30:33.217Z,16.60
2018-12-27T04:31:33.243Z,16.90
2018-12-27T04:32:33.202Z,16.30
2018-12-27T04:33:33.186Z,17.30
2018-12-27T04:34:33.239Z,15.90
2018-12-27T04:35:33.169Z,15.00
2018-12-27T04:36:33.198Z,16.60
2018-12-27T04:37:33.145Z,16.70
2018-12-27T04:38:33.135Z,17.10
2018-12-27T04:39:33.119Z,16.50
2018-12-27T04:40:33.147Z,16.90
2018-12-27T04:41:33.103Z,16.60
2018-12-27T04:42:33.086Z,16.90
2018-12-27T04:43:33.093Z,17.00
2018-12-27T04:44:33.064Z,17.40
2018-12-27T04:45:33.059Z,16.90
2018-12-27T04:46:33.086Z,18.20
2018-12-27T04:47:33.035Z,17.40
2018-12-27T04:48:33.033Z,16.80
2018-12-27T04:49:33.016Z,17.70
2018-12-27T04:50:33.000Z,17.40
2018-12-27T04:51:32.989Z,18.90
2018-12-27T04:52:33.025Z,18.20
2018-12-27T04:53:32.971Z,17.30
2018-12-27T04:54:32.972Z,16.80
2018-12-27T04:55:32.951Z,16.80
2018-12-27T04:56:32.934Z,18.60
2018-12-27T04:57:32.926Z,16.30
2018-12-27T04:58:32.952Z,18.10
2018-12-27T04:59:32.906Z,17.50
2018-12-27T05:00:32.905Z,17.60
2018-12-27T05:01:32.930Z,17.90
2018-12-27T05:02:32.880Z,17.30
2018-12-27T05:03:32.858Z,18.00
2018-12-27T05:04:32.893Z,18.40
2018-12-27T05:05:32.835Z,18.20
2018-12-27T05:06:32.829Z,18.30
2018-12-27T05:07:32.852Z,18.70
2018-12-27T05:08:32.802Z,17.00
2018-12-27T05:09:32.849Z,17.50
2018-12-27T05:10:32.782Z,18.00
2018-12-27T05:11:32.796Z,17.00
2018-12-27T05:12:32.800Z,19.10
2018-12-27T05:13:32.789Z,18.40
2018-12-27T05:14:32.738Z,18.30
2018-12-27T05:15:32.754Z,18.90
2018-12-27T05:16:32.715Z,17.80
2018-12-27T05:17:32.707Z,17.40
2018-12-27T05:18:32.691Z,18.20
2018-12-27T05:19:32.722Z,17.70
2018-12-27T05:20:32.672Z,18.40
2018-12-27T05:21:32.671Z,17.50
2018-12-27T05:22:32.651Z,17.20
2018-12-27T05:23:32.686Z,17.80
2018-12-27T05:24:32.687Z,17.40
2018-12-27T05:25:32.617Z,19.10
2018-12-27T05:26:32.607Z,17.40
2018-12-27T05:27:32.604Z,17.40
2018-12-27T05:28:32.590Z,17.10
2018-12-27T05:29:32.579Z,17.80
2018-12-27T05:30:32.608Z,19.10
2018-12-27T05:31:32.553Z,17.20
2018-12-27T05:32:32.542Z,18.50
2018-12-27T05:33:32.541Z,19.80
2018-12-27T05:34:32.521Z,16.60
2018-12-27T05:35:32.510Z,17.00
2018-12-27T05:36:32.538Z,17.50
2018-12-27T05:37:32.492Z,16.70
2018-12-27T05:38:32.486Z,16.90
2018-12-27T05:39:32.470Z,18.70
2018-12-27T05:40:32.496Z,16.90
2018-12-27T05:41:32.445Z,17.70
2018-12-27T05:42:32.437Z,16.90
2018-12-27T05:43:32.420Z,16.90
2018-12-27T05:44:32.411Z,17.70
2018-12-27T05:45:32.402Z,18.30
2018-12-27T05:46:32.436Z,18.20
2018-12-27T05:47:32.378Z,18.10
2018-12-27T05:48:32.393Z,18.40
2018-12-27T05:49:32.358Z,17.10
2018-12-27T05:50:32.354Z,16.00
2018-12-27T05:51:32.376Z,17.50
2018-12-27T05:52:32.325Z,18.40
2018-12-27T05:53:32.317Z,18.30
2018-12-27T05:54:32.302Z,18.60
2018-12-27T05:55:34.460Z,18.10
2018-12-27T05:56:32.281Z,17.90
2018-12-27T05:57:32.311Z,18.90
2018-12-27T05:58:32.261Z,18.80
2018-12-27T05:59:32.254Z,18.10
2018-12-27T06:00:32.237Z,18.00
2018-12-27T06:01:32.236Z,19.10
2018-12-27T06:02:32.221Z,17.50
2018-12-27T06:03:32.251Z,18.40
2018-12-27T06:04:34.000Z,17.80
2018-12-27T06:05:32.186Z,17.10
2018-12-27T06:06:32.239Z,17.50
2018-12-27T06:07:32.166Z,17.60
2018-12-27T06:08:32.173Z,18.30
2018-12-27T06:09:32.144Z,17.40
2018-12-27T06:10:32.135Z,18.30
2018-12-27T06:11:32.130Z,17.90
2018-12-27T06:12:32.158Z,17.30
2018-12-27T06:13:32.106Z,16.80
2018-12-27T06:14:32.171Z,17.80
2018-12-27T06:15:32.081Z,17.00
2018-12-27T06:16:32.123Z,19.50
2018-12-27T06:17:32.062Z,18.10
2018-12-27T06:18:32.041Z,17.60
2018-12-27T06:19:32.032Z,17.30
2018-12-27T06:20:32.050Z,16.80
2018-12-27T06:21:32.025Z,16.70
2018-12-27T06:22:32.039Z,20.30
2018-12-27T06:23:32.053Z,16.60
2018-12-27T06:24:31.998Z,17.70
2018-12-27T06:25:31.983Z,17.50
2018-12-27T06:26:31.962Z,18.40
2018-12-27T06:27:31.955Z,18.50
2018-12-27T06:28:31.938Z,18.30
2018-12-27T06:29:31.987Z,18.60
2018-12-27T06:30:31.924Z,18.30
2018-12-27T06:31:31.925Z,18.20
2018-12-27T06:32:31.896Z,18.40
2018-12-27T06:33:31.882Z,18.30
2018-12-27T06:34:31.899Z,19.50
2018-12-27T06:35:31.906Z,18.20
2018-12-27T06:36:31.853Z,17.70
2018-12-27T06:37:31.840Z,18.30
2018-12-27T06:38:31.836Z,17.30
2018-12-27T06:39:31.827Z,17.40
2018-12-27T06:40:31.820Z,17.80
2018-12-27T06:41:31.847Z,19.40
2018-12-27T06:42:31.790Z,19.50
2018-12-27T06:43:31.813Z,19.80
2018-12-27T06:44:31.775Z,19.50
2018-12-27T06:45:31.758Z,19.10
2018-12-27T06:46:31.743Z,18.60
2018-12-27T06:47:31.790Z,20.90
2018-12-27T06:48:31.722Z,18.90
2018-12-27T06:49:31.714Z,20.30
2018-12-27T06:50:31.708Z,19.70
2018-12-27T06:51:31.686Z,20.60
2018-12-27T06:52:31.685Z,20.10
2018-12-27T06:53:31.715Z,19.00
2018-12-27T06:54:31.716Z,20.30
2018-12-27T06:55:31.691Z,19.80
2018-12-27T06:56:31.629Z,19.60
2018-12-27T06:57:31.686Z,19.50
2018-12-27T06:58:37.724Z,19.70
2018-12-27T06:59:32.648Z,21.60
2018-12-27T07:00:31.601Z,20.40
2018-12-27T07:01:31.578Z,18.90
2018-12-27T07:02:31.573Z,19.70
2018-12-27T07:03:31.583Z,20.30
2018-12-27T07:04:31.547Z,19.20
2018-12-27T07:05:31.590Z,20.80
2018-12-27T07:06:31.532Z,19.40
2018-12-27T07:07:31.516Z,18.90
2018-12-27T07:08:31.513Z,20.10
2018-12-27T07:09:31.492Z,20.50
2018-12-27T07:10:31.536Z,20.30
2018-12-27T07:11:31.477Z,21.10
2018-12-27T07:12:31.472Z,19.20
2018-12-27T07:13:31.458Z,20.30
2018-12-27T07:14:31.435Z,18.80
2018-12-27T07:15:31.434Z,20.10
2018-12-27T07:16:31.467Z,20.80
2018-12-27T07:17:31.427Z,21.90
2018-12-27T07:18:31.411Z,22.00
2018-12-27T07:19:31.383Z,23.00
2018-12-27T07:20:31.380Z,23.80
2018-12-27T07:21:31.375Z,23.10
2018-12-27T07:22:31.410Z,23.80
2018-12-27T07:23:31.338Z,23.40
2018-12-27T07:24:31.325Z,24.00
2018-12-27T07:25:31.347Z,23.80
2018-12-27T07:26:31.327Z,22.00
2018-12-27T07:27:31.301Z,22.20
2018-12-27T07:28:31.327Z,22.10
2018-12-27T07:29:31.289Z,21.60
2018-12-27T07:30:31.276Z,21.30
2018-12-27T07:31:31.264Z,20.60
2018-12-27T07:32:31.243Z,19.50
2018-12-27T07:33:31.306Z,21.00
2018-12-27T07:34:31.241Z,21.20
2018-12-27T07:35:31.248Z,18.50
2018-12-27T07:36:31.204Z,18.90
2018-12-27T07:37:31.189Z,18.70
2018-12-27T07:38:31.242Z,18.50
2018-12-27T07:39:31.169Z,18.60
2018-12-27T07:40:31.168Z,19.30
2018-12-27T07:41:31.162Z,20.30
2018-12-27T07:42:31.136Z,19.60
2018-12-27T07:43:31.134Z,17.40
2018-12-27T07:44:31.154Z,18.80
2018-12-27T07:45:31.114Z,19.10
2018-12-27T07:46:31.141Z,17.10
2018-12-27T07:47:31.090Z,19.20
2018-12-27T07:48:31.089Z,17.30
2018-12-27T07:49:31.085Z,19.10
2018-12-27T07:50:31.091Z,18.50
2018-12-27T07:51:31.037Z,18.00
2018-12-27T07:52:31.216Z,19.20
2018-12-27T07:53:31.025Z,19.00
2018-12-27T07:54:31.032Z,20.30
2018-12-27T07:55:30.999Z,20.30
2018-12-27T07:56:30.985Z,20.30
2018-12-27T07:57:30.975Z,17.30
2018-12-27T07:58:31.009Z,19.30
2018-12-27T07:59:30.958Z,20.40
2018-12-27T08:00:30.953Z,20.10
2018-12-27T08:01:30.928Z,18.50
2018-12-27T08:02:30.921Z,18.80
2018-12-27T08:03:30.915Z,18.80
2018-12-27T08:04:30.933Z,18.50
2018-12-27T08:05:30.934Z,19.40
2018-12-27T08:06:30.879Z,18.40
2018-12-27T08:07:30.889Z,19.40
2018-12-27T08:08:30.856Z,16.70
2018-12-27T08:09:30.896Z,19.20
2018-12-27T08:10:30.897Z,19.90
2018-12-27T08:11:30.818Z,19.00
2018-12-27T08:12:30.815Z,20.10
2018-12-27T08:13:31.077Z,19.10
2018-12-27T08:14:30.798Z,19.70
2018-12-27T08:15:30.781Z,18.10
2018-12-27T08:16:30.762Z,19.00
2018-12-27T08:17:30.790Z,19.30
2018-12-27T08:18:30.755Z,18.60
2018-12-27T08:19:30.785Z,18.70
2018-12-27T08:20:30.725Z,19.20
2018-12-27T08:21:30.741Z,20.00
2018-12-27T08:22:30.706Z,19.10
2018-12-27T08:23:30.733Z,18.90
2018-12-27T08:24:30.681Z,19.50
2018-12-27T08:25:30.666Z,19.50
2018-12-27T08:26:30.660Z,21.10
2018-12-27T08:27:30.648Z,18.70
2018-12-27T08:28:30.646Z,19.90
2018-12-27T08:29:30.677Z,19.00
2018-12-27T08:30:30.639Z,18.00
2018-12-27T08:31:30.652Z,19.60
2018-12-27T08:32:30.597Z,18.40
2018-12-27T08:33:30.586Z,19.20
2018-12-27T08:34:30.581Z,19.30
2018-12-27T08:35:30.598Z,18.70
2018-12-27T08:36:30.553Z,19.30
2018-12-27T08:37:30.583Z,18.20
2018-12-27T08:38:30.526Z,18.00
2018-12-27T08:39:30.518Z,18.00
2018-12-27T08:40:30.519Z,18.60
2018-12-27T08:41:30.498Z,18.30
2018-12-27T08:42:30.536Z,16.90
2018-12-27T08:43:30.551Z,18.20
2018-12-27T08:44:30.471Z,18.10
2018-12-27T08:45:30.473Z,18.20
2018-12-27T08:46:30.444Z,18.20
2018-12-27T08:47:30.431Z,18.00
2018-12-27T08:48:30.421Z,18.70
2018-12-27T08:49:30.460Z,17.40
2018-12-27T08:50:30.443Z,17.60
2018-12-27T08:51:30.405Z,18.60
2018-12-27T08:52:30.376Z,16.40
2018-12-27T08:53:30.429Z,18.10
2018-12-27T08:54:30.365Z,17.80
2018-12-27T08:55:30.375Z,18.70
2018-12-27T08:56:30.334Z,18.20
2018-12-27T08:57:30.330Z,19.20
2018-12-27T08:58:30.322Z,18.30
2018-12-27T08:59:30.354Z,17.50
2018-12-27T09:00:30.291Z,17.10
2018-12-27T09:01:30.286Z,17.30
2018-12-27T09:02:30.269Z,17.00
2018-12-27T09:03:30.268Z,18.40
2018-12-27T09:04:30.250Z,18.80
2018-12-27T09:05:30.273Z,18.20
2018-12-27T09:06:30.223Z,16.10
2018-12-27T09:07:30.217Z,16.80
2018-12-27T09:08:30.207Z,17.10
2018-12-27T09:09:30.197Z,16.40
2018-12-27T09:10:30.221Z,17.70
2018-12-27T09:11:30.165Z,20.20
2018-12-27T09:12:30.155Z,17.50
2018-12-27T09:13:30.202Z,16.70
2018-12-27T09:14:30.140Z,17.80
2018-12-27T09:15:30.183Z,16.60
2018-12-27T09:16:30.123Z,16.50
2018-12-27T09:17:30.108Z,15.40
2018-12-27T09:18:30.147Z,17.20
2018-12-27T09:19:30.107Z,17.00
2018-12-27T09:20:30.081Z,17.50
2018-12-27T09:21:30.117Z,17.10
2018-12-27T09:22:30.053Z,17.20
2018-12-27T09:23:30.045Z,17.20
2018-12-27T09:24:30.037Z,16.70
2018-12-27T09:25:30.013Z,17.40
2018-12-27T09:26:30.028Z,16.40
2018-12-27T09:27:30.064Z,16.60
2018-12-27T09:28:29.994Z,16.40
2018-12-27T09:29:29.987Z,16.80
2018-12-27T09:30:29.962Z,17.30
2018-12-27T09:31:29.956Z,17.70
2018-12-27T09:32:29.935Z,16.90
2018-12-27T09:33:29.974Z,17.30
2018-12-27T09:34:29.919Z,17.80
2018-12-27T09:35:29.907Z,17.00
2018-12-27T09:36:29.909Z,16.20
2018-12-27T09:37:29.897Z,17.30
2018-12-27T09:38:29.882Z,16.60
2018-12-27T09:39:29.959Z,16.60
2018-12-27T09:40:29.849Z,17.30
2018-12-27T09:41:29.849Z,16.40
2018-12-27T09:42:29.831Z,17.40
2018-12-27T09:43:29.833Z,17.80
2018-12-27T09:44:29.805Z,16.90
2018-12-27T09:45:29.875Z,17.00
2018-12-27T09:46:29.809Z,16.30
2018-12-27T09:47:29.773Z,16.90
2018-12-27T09:48:29.769Z,16.70
2018-12-27T09:49:29.806Z,18.40
2018-12-27T09:50:29.746Z,16.60
2018-12-27T09:51:29.767Z,16.80
2018-12-27T09:52:29.803Z,15.90
2018-12-27T09:53:29.716Z,16.50
2018-12-27T09:54:29.699Z,16.30
2018-12-27T09:55:29.703Z,16.10
2018-12-27T09:56:29.694Z,16.60
2018-12-27T09:57:29.676Z,16.70
2018-12-27T09:58:29.695Z,16.60
2018-12-27T09:59:29.682Z,16.00
2018-12-27T10:00:29.701Z,16.70
2018-12-27T10:01:29.677Z,17.50
2018-12-27T10:02:29.616Z,16.30
2018-12-27T10:03:29.670Z,15.50
2018-12-27T10:04:29.624Z,16.00
2018-12-27T10:05:33.818Z,14.70
2018-12-27T10:06:29.612Z,15.70
2018-12-27T10:07:29.561Z,15.90
2018-12-27T10:08:29.560Z,15.50
2018-12-27T10:09:29.706Z,15.40
2018-12-27T10:10:29.530Z,15.70
2018-12-27T10:11:29.517Z,16.80
2018-12-27T10:12:29.506Z,16.50
2018-12-27T10:13:29.506Z,15.30
2018-12-27T10:14:29.487Z,15.80
2018-12-27T10:15:30.123Z,14.80
2018-12-27T10:16:29.466Z,15.00
2018-12-27T10:17:29.523Z,14.90
2018-12-27T10:18:29.458Z,15.90
2018-12-27T10:19:29.438Z,14.80
2018-12-27T10:20:29.495Z,14.70
2018-12-27T10:21:29.417Z,14.40
2018-12-27T10:22:29.411Z,15.40
2018-12-27T10:23:29.453Z,15.00
2018-12-27T10:24:29.390Z,14.00
2018-12-27T10:25:29.367Z,14.90
2018-12-27T10:26:29.364Z,14.70
2018-12-27T10:27:29.350Z,14.90
2018-12-27T10:28:29.385Z,15.90
2018-12-27T10:29:29.353Z,16.00
2018-12-27T10:30:29.327Z,15.90
2018-12-27T10:31:29.300Z,16.20
2018-12-27T10:32:29.292Z,16.00
2018-12-27T10:33:29.291Z,14.80
2018-12-27T10:34:29.326Z,14.90
2018-12-27T10:35:29.268Z,14.20
2018-12-27T10:36:29.260Z,14.50
2018-12-27T10:37:29.254Z,14.60
2018-12-27T10:38:29.236Z,13.50
2018-12-27T10:39:29.284Z,14.40
2018-12-27T10:40:29.203Z,14.20
2018-12-27T10:41:29.225Z,13.80
2018-12-27T10:42:29.188Z,14.40
2018-12-27T10:43:29.196Z,13.70
2018-12-27T10:44:29.228Z,13.40
2018-12-27T10:45:29.195Z,13.80
2018-12-27T10:46:29.178Z,14.10
2018-12-27T10:47:29.131Z,14.50
2018-12-27T10:48:29.165Z,14.30
2018-12-27T10:49:29.110Z,14.90
2018-12-27T10:50:29.103Z,14.30
2018-12-27T10:51:29.097Z,13.70
2018-12-27T10:52:29.104Z,13.90
2018-12-27T10:53:29.079Z,14.20
2018-12-27T10:54:29.105Z,13.60
2018-12-27T10:55:29.091Z,13.10
2018-12-27T10:56:29.044Z,13.90
2018-12-27T10:57:29.024Z,14.20
2018-12-27T10:58:29.017Z,14.20
2018-12-27T10:59:28.995Z,13.30
2018-12-27T11:00:29.017Z,13.90
2018-12-27T11:01:29.019Z,13.30
2018-12-27T11:02:29.022Z,13.10
2018-12-27T11:03:30.683Z,12.70
2018-12-27T11:04:28.953Z,13.80
2018-12-27T11:05:29.006Z,13.10
2018-12-27T11:06:28.922Z,13.60
2018-12-27T11:07:28.918Z,12.30
2018-12-27T11:08:28.901Z,13.50
2018-12-27T11:09:28.919Z,13.50
2018-12-27T11:10:28.892Z,14.10
2018-12-27T11:11:28.931Z,13.30
2018-12-27T11:12:28.857Z,12.90
2018-12-27T11:13:28.858Z,13.10
2018-12-27T11:14:28.850Z,13.20
2018-12-27T11:15:28.831Z,15.20
2018-12-27T11:16:28.935Z,13.10
2018-12-27T11:17:28.805Z,13.00
2018-12-27T11:18:28.836Z,14.40
2018-12-27T11:19:28.782Z,13.50
2018-12-27T11:20:28.800Z,13.60
2018-12-27T11:21:28.768Z,13.90
2018-12-27T11:22:28.798Z,13.10
2018-12-27T11:23:28.746Z,14.30
2018-12-27T11:24:28.737Z,13.30
2018-12-27T11:25:28.727Z,12.80
2018-12-27T11:26:28.718Z,12.70
2018-12-27T11:27:28.708Z,14.10
2018-12-27T11:28:28.730Z,13.00
2018-12-27T11:29:28.689Z,12.50
2018-12-27T11:30:28.670Z,13.00
2018-12-27T11:31:28.660Z,12.90
2018-12-27T11:32:28.659Z,12.60
2018-12-27T11:33:28.642Z,12.40
2018-12-27T11:34:28.669Z,12.30
2018-12-27T11:35:28.641Z,11.50
2018-12-27T11:36:28.604Z,12.50
2018-12-27T11:37:28.592Z,11.90
2018-12-27T11:38:28.581Z,12.00
2018-12-27T11:39:28.618Z,12.90
2018-12-27T11:40:28.554Z,11.60
2018-12-27T11:41:28.573Z,11.40
2018-12-27T11:42:28.605Z,12.60
2018-12-27T11:43:28.526Z,10.90
2018-12-27T11:44:28.538Z,10.80
2018-12-27T11:45:28.507Z,10.80
2018-12-27T11:46:28.492Z,10.80
2018-12-27T11:47:28.485Z,11.00
2018-12-27T11:48:28.522Z,11.10
2018-12-27T11:49:28.462Z,10.60
2018-12-27T11:50:28.455Z,10.40
2018-12-27T11:51:28.505Z,10.40
2018-12-27T11:52:28.431Z,9.80
2018-12-27T11:53:28.427Z,9.00
2018-12-27T11:54:28.506Z,9.80
2018-12-27T11:55:28.394Z,9.90
2018-12-27T11:56:28.399Z,9.90
2018-12-27T11:57:28.372Z,10.30
2018-12-27T11:58:28.374Z,9.60
2018-12-27T11:59:28.405Z,10.30
2018-12-27T12:00:28.351Z,9.20
2018-12-27T12:01:28.404Z,10.60
2018-12-27T12:02:31.202Z,9.60
2018-12-27T12:03:28.351Z,10.10
2018-12-27T12:04:28.296Z,10.40
2018-12-27T12:05:28.324Z,10.10
2018-12-27T12:06:28.280Z,11.60
2018-12-27T12:07:28.277Z,11.90
2018-12-27T12:08:28.273Z,11.20
2018-12-27T12:09:28.268Z,12.90
2018-12-27T12:10:28.232Z,12.40
2018-12-27T12:11:28.260Z,11.60
2018-12-27T12:12:28.216Z,12.70
2018-12-27T12:13:28.198Z,12.50
2018-12-27T12:14:28.209Z,12.10
2018-12-27T12:15:28.192Z,13.10
2018-12-27T12:16:28.163Z,12.80
2018-12-27T12:17:28.209Z,14.00
2018-12-27T12:18:28.151Z,11.60
2018-12-27T12:19:28.133Z,11.80
2018-12-27T12:20:28.122Z,11.40
2018-12-27T12:21:28.117Z,11.90
2018-12-27T12:22:28.143Z,11.90
2018-12-27T12:23:28.132Z,10.90
2018-12-27T12:24:28.084Z,11.60
2018-12-27T12:25:28.066Z,11.10
2018-12-27T12:26:28.078Z,11.00
2018-12-27T12:27:28.073Z,11.00
2018-12-27T12:28:28.044Z,10.40
2018-12-27T12:29:28.076Z,10.90
2018-12-27T12:30:28.044Z,10.80
2018-12-27T12:31:28.198Z,10.60
2018-12-27T12:32:27.995Z,10.10
2018-12-27T12:33:28.027Z,10.00
2018-12-27T12:34:27.980Z,10.80
2018-12-27T12:35:27.975Z,10.10
2018-12-27T12:36:27.998Z,11.10
2018-12-27T12:37:27.937Z,11.50
2018-12-27T12:38:27.941Z,10.00
2018-12-27T12:39:27.978Z,11.20
2018-12-27T12:40:27.927Z,10.90
2018-12-27T12:41:27.896Z,10.70
2018-12-27T12:42:32.959Z,10.80
2018-12-27T12:43:28.932Z,10.10
2018-12-27T12:44:27.862Z,10.40
2018-12-27T12:45:27.858Z,12.40
2018-12-27T12:46:27.885Z,10.70
2018-12-27T12:47:27.869Z,12.00
2018-12-27T12:48:28.133Z,11.70
2018-12-27T12:49:27.805Z,10.50
2018-12-27T12:50:27.841Z,10.80
2018-12-27T12:51:27.809Z,11.40
2018-12-27T12:52:27.774Z,10.00